sensor_id;sensor_type;location;lat;lon;timestamp;P1;durP1;ratioP1;P2;durP2;ratioP2
47519;SDS011;33252;48.122;11.538;2022-08-19T00:01:37;5.28;;;4.32;;
47519;SDS011;33252;48.122;11.538;2022-08-19T00:04:06;5.50;;;4.68;;
47519;SDS011;33252;48.122;11.538;2022-08-19T00:06:33;4.53;;;3.80;;
47519;SDS011;33252;48.122;11.538;2022-08-19T00:09:01;6.25;;;5.05;;
47519;SDS011;33252;48.122;11.538;2022-08-19T00:11:28;5.70;;;4.63;;
47519;SDS011;33252;48.122;11.538;2022-08-19T00:13:54;6.63;;;4.80;;
47519;SDS011;33252;48.122;11.538;2022-08-19T00:16:21;6.75;;;5.32;;
47519;SDS011;33252;48.122;11.538;2022-08-19T00:18:48;7.10;;;5.10;;
47519;SDS011;33252;48.122;11.538;2022-08-19T00:21:14;6.47;;;5.40;;
47519;SDS011;33252;48.122;11.538;2022-08-19T00:23:40;8.95;;;5.78;;
47519;SDS011;33252;48.122;11.538;2022-08-19T00:26:08;6.13;;;5.30;;
47519;SDS011;33252;48.122;11.538;2022-08-19T00:28:34;6.03;;;5.43;;
47519;SDS011;33252;48.122;11.538;2022-08-19T00:31:01;6.78;;;5.65;;
47519;SDS011;33252;48.122;11.538;2022-08-19T00:33:28;7.57;;;5.85;;
47519;SDS011;33252;48.122;11.538;2022-08-19T00:35:57;6.72;;;6.03;;
47519;SDS011;33252;48.122;11.538;2022-08-19T00:38:23;8.73;;;6.68;;
47519;SDS011;33252;48.122;11.538;2022-08-19T00:40:49;8.98;;;6.05;;
47519;SDS011;33252;48.122;11.538;2022-08-19T00:43:17;9.65;;;6.78;;
47519;SDS011;33252;48.122;11.538;2022-08-19T00:45:45;8.30;;;6.45;;
47519;SDS011;33252;48.122;11.538;2022-08-19T00:48:13;8.20;;;6.50;;
47519;SDS011;33252;48.122;11.538;2022-08-19T00:50:39;7.47;;;6.60;;
47519;SDS011;33252;48.122;11.538;2022-08-19T00:53:07;8.00;;;6.90;;
47519;SDS011;33252;48.122;11.538;2022-08-19T00:55:35;7.28;;;6.25;;
47519;SDS011;33252;48.122;11.538;2022-08-19T00:58:04;9.88;;;7.18;;
47519;SDS011;33252;48.122;11.538;2022-08-19T01:00:33;9.07;;;8.18;;
47519;SDS011;33252;48.122;11.538;2022-08-19T01:03:02;10.48;;;7.82;;
47519;SDS011;33252;48.122;11.538;2022-08-19T01:05:30;8.95;;;7.28;;
47519;SDS011;33252;48.122;11.538;2022-08-19T01:07:57;8.73;;;7.68;;
47519;SDS011;33252;48.122;11.538;2022-08-19T01:10:26;9.73;;;8.43;;
47519;SDS011;33252;48.122;11.538;2022-08-19T01:12:54;9.60;;;8.07;;
47519;SDS011;33252;48.122;11.538;2022-08-19T01:15:22;10.30;;;8.20;;
47519;SDS011;33252;48.122;11.538;2022-08-19T01:17:52;11.87;;;8.60;;
47519;SDS011;33252;48.122;11.538;2022-08-19T01:20:20;11.80;;;8.10;;
47519;SDS011;33252;48.122;11.538;2022-08-19T01:22:52;8.65;;;7.75;;
47519;SDS011;33252;48.122;11.538;2022-08-19T01:25:21;11.25;;;9.20;;
47519;SDS011;33252;48.122;11.538;2022-08-19T01:27:54;12.63;;;8.43;;
47519;SDS011;33252;48.122;11.538;2022-08-19T01:30:28;11.40;;;9.30;;
47519;SDS011;33252;48.122;11.538;2022-08-19T01:32:57;11.20;;;9.80;;
47519;SDS011;33252;48.122;11.538;2022-08-19T01:35:25;9.73;;;8.73;;
47519;SDS011;33252;48.122;11.538;2022-08-19T01:37:55;12.07;;;9.57;;
47519;SDS011;33252;48.122;11.538;2022-08-19T01:40:25;11.00;;;9.23;;
47519;SDS011;33252;48.122;11.538;2022-08-19T01:42:53;11.90;;;8.73;;
47519;SDS011;33252;48.122;11.538;2022-08-19T01:45:20;10.43;;;9.10;;
47519;SDS011;33252;48.122;11.538;2022-08-19T01:47:47;9.73;;;8.48;;
47519;SDS011;33252;48.122;11.538;2022-08-19T01:50:13;9.82;;;8.60;;
47519;SDS011;33252;48.122;11.538;2022-08-19T01:52:40;11.35;;;8.77;;
47519;SDS011;33252;48.122;11.538;2022-08-19T01:55:08;11.32;;;8.85;;
47519;SDS011;33252;48.122;11.538;2022-08-19T01:57:36;11.82;;;8.70;;
47519;SDS011;33252;48.122;11.538;2022-08-19T02:00:06;11.98;;;7.93;;
47519;SDS011;33252;48.122;11.538;2022-08-19T02:02:35;9.43;;;7.22;;
47519;SDS011;33252;48.122;11.538;2022-08-19T02:05:00;9.00;;;8.10;;
47519;SDS011;33252;48.122;11.538;2022-08-19T02:07:26;8.77;;;7.13;;
47519;SDS011;33252;48.122;11.538;2022-08-19T02:09:53;10.02;;;8.68;;
47519;SDS011;33252;48.122;11.538;2022-08-19T02:12:20;9.38;;;7.82;;
47519;SDS011;33252;48.122;11.538;2022-08-19T02:14:46;10.18;;;7.45;;
47519;SDS011;33252;48.122;11.538;2022-08-19T02:17:12;9.90;;;8.05;;
47519;SDS011;33252;48.122;11.538;2022-08-19T02:19:37;9.23;;;8.00;;
47519;SDS011;33252;48.122;11.538;2022-08-19T02:22:03;10.00;;;7.60;;
47519;SDS011;33252;48.122;11.538;2022-08-19T02:24:29;10.27;;;8.02;;
47519;SDS011;33252;48.122;11.538;2022-08-19T02:26:55;8.70;;;7.05;;
47519;SDS011;33252;48.122;11.538;2022-08-19T02:29:20;7.60;;;6.75;;
47519;SDS011;33252;48.122;11.538;2022-08-19T02:31:47;8.27;;;7.25;;
47519;SDS011;33252;48.122;11.538;2022-08-19T02:34:13;10.23;;;7.57;;
47519;SDS011;33252;48.122;11.538;2022-08-19T02:36:39;8.15;;;6.72;;
47519;SDS011;33252;48.122;11.538;2022-08-19T02:39:04;8.23;;;6.18;;
47519;SDS011;33252;48.122;11.538;2022-08-19T02:41:31;8.23;;;6.78;;
47519;SDS011;33252;48.122;11.538;2022-08-19T02:44:00;7.97;;;6.07;;
47519;SDS011;33252;48.122;11.538;2022-08-19T02:46:30;7.40;;;6.50;;
47519;SDS011;33252;48.122;11.538;2022-08-19T02:48:58;11.48;;;7.28;;
47519;SDS011;33252;48.122;11.538;2022-08-19T02:51:34;8.50;;;7.45;;
47519;SDS011;33252;48.122;11.538;2022-08-19T02:54:03;8.27;;;7.00;;
47519;SDS011;33252;48.122;11.538;2022-08-19T02:56:30;8.10;;;6.78;;
47519;SDS011;33252;48.122;11.538;2022-08-19T02:58:56;10.73;;;7.82;;
47519;SDS011;33252;48.122;11.538;2022-08-19T03:03:54;8.27;;;6.97;;
47519;SDS011;33252;48.122;11.538;2022-08-19T03:06:21;8.98;;;7.10;;
47519;SDS011;33252;48.122;11.538;2022-08-19T03:08:47;8.82;;;7.38;;
47519;SDS011;33252;48.122;11.538;2022-08-19T03:11:18;9.18;;;6.60;;
47519;SDS011;33252;48.122;11.538;2022-08-19T03:13:47;8.85;;;6.15;;
47519;SDS011;33252;48.122;11.538;2022-08-19T03:16:20;9.07;;;7.05;;
47519;SDS011;33252;48.122;11.538;2022-08-19T03:18:48;7.80;;;6.97;;
47519;SDS011;33252;48.122;11.538;2022-08-19T03:21:15;10.77;;;7.80;;
47519;SDS011;33252;48.122;11.538;2022-08-19T03:23:44;8.93;;;6.65;;
47519;SDS011;33252;48.122;11.538;2022-08-19T03:26:10;7.90;;;6.65;;
47519;SDS011;33252;48.122;11.538;2022-08-19T03:28:36;8.30;;;7.38;;
47519;SDS011;33252;48.122;11.538;2022-08-19T03:31:06;11.40;;;7.57;;
47519;SDS011;33252;48.122;11.538;2022-08-19T03:33:37;8.70;;;6.50;;
47519;SDS011;33252;48.122;11.538;2022-08-19T03:36:06;6.82;;;5.93;;
47519;SDS011;33252;48.122;11.538;2022-08-19T03:38:35;8.63;;;6.13;;
47519;SDS011;33252;48.122;11.538;2022-08-19T03:41:07;9.00;;;7.20;;
47519;SDS011;33252;48.122;11.538;2022-08-19T03:43:35;8.10;;;6.15;;
47519;SDS011;33252;48.122;11.538;2022-08-19T03:46:06;10.55;;;6.22;;
47519;SDS011;33252;48.122;11.538;2022-08-19T03:48:37;8.15;;;6.88;;
47519;SDS011;33252;48.122;11.538;2022-08-19T03:51:05;8.23;;;6.32;;
47519;SDS011;33252;48.122;11.538;2022-08-19T03:53:31;8.55;;;6.32;;
47519;SDS011;33252;48.122;11.538;2022-08-19T03:55:59;7.25;;;6.43;;
47519;SDS011;33252;48.122;11.538;2022-08-19T03:58:25;7.15;;;5.88;;
47519;SDS011;33252;48.122;11.538;2022-08-19T04:00:53;7.65;;;6.35;;
47519;SDS011;33252;48.122;11.538;2022-08-19T04:03:22;7.35;;;6.50;;
47519;SDS011;33252;48.122;11.538;2022-08-19T04:05:49;12.02;;;7.10;;
47519;SDS011;33252;48.122;11.538;2022-08-19T04:08:15;8.15;;;6.95;;
47519;SDS011;33252;48.122;11.538;2022-08-19T04:10:44;9.50;;;6.20;;
47519;SDS011;33252;48.122;11.538;2022-08-19T04:13:09;8.30;;;6.88;;
47519;SDS011;33252;48.122;11.538;2022-08-19T04:15:38;9.73;;;6.82;;
47519;SDS011;33252;48.122;11.538;2022-08-19T04:18:08;10.63;;;7.55;;
47519;SDS011;33252;48.122;11.538;2022-08-19T04:20:39;11.13;;;7.20;;
47519;SDS011;33252;48.122;11.538;2022-08-19T04:23:06;11.68;;;8.00;;
47519;SDS011;33252;48.122;11.538;2022-08-19T04:25:38;9.63;;;7.05;;
47519;SDS011;33252;48.122;11.538;2022-08-19T04:28:07;12.60;;;8.45;;
47519;SDS011;33252;48.122;11.538;2022-08-19T04:30:38;9.32;;;7.68;;
47519;SDS011;33252;48.122;11.538;2022-08-19T04:33:09;10.43;;;8.45;;
47519;SDS011;33252;48.122;11.538;2022-08-19T04:35:37;11.93;;;8.18;;
47519;SDS011;33252;48.122;11.538;2022-08-19T04:38:08;10.43;;;8.48;;
47519;SDS011;33252;48.122;11.538;2022-08-19T04:40:42;10.82;;;8.55;;
47519;SDS011;33252;48.122;11.538;2022-08-19T04:43:31;12.10;;;9.10;;
47519;SDS011;33252;48.122;11.538;2022-08-19T04:45:58;13.50;;;9.10;;
47519;SDS011;33252;48.122;11.538;2022-08-19T04:48:29;11.02;;;8.90;;
47519;SDS011;33252;48.122;11.538;2022-08-19T04:50:55;11.05;;;8.93;;
47519;SDS011;33252;48.122;11.538;2022-08-19T04:53:29;10.88;;;8.55;;
47519;SDS011;33252;48.122;11.538;2022-08-19T04:55:56;11.30;;;8.07;;
47519;SDS011;33252;48.122;11.538;2022-08-19T04:58:24;10.57;;;8.43;;
47519;SDS011;33252;48.122;11.538;2022-08-19T05:00:51;11.77;;;6.90;;
47519;SDS011;33252;48.122;11.538;2022-08-19T05:03:18;10.05;;;8.02;;
47519;SDS011;33252;48.122;11.538;2022-08-19T05:05:44;12.10;;;8.90;;
47519;SDS011;33252;48.122;11.538;2022-08-19T05:08:13;12.77;;;9.07;;
47519;SDS011;33252;48.122;11.538;2022-08-19T05:10:44;14.65;;;9.65;;
47519;SDS011;33252;48.122;11.538;2022-08-19T05:13:12;12.23;;;9.25;;
47519;SDS011;33252;48.122;11.538;2022-08-19T05:15:38;11.20;;;8.40;;
47519;SDS011;33252;48.122;11.538;2022-08-19T05:18:03;11.07;;;8.20;;
47519;SDS011;33252;48.122;11.538;2022-08-19T05:20:48;9.57;;;8.32;;
47519;SDS011;33252;48.122;11.538;2022-08-19T05:23:32;10.77;;;7.68;;
47519;SDS011;33252;48.122;11.538;2022-08-19T05:25:57;10.93;;;8.75;;
47519;SDS011;33252;48.122;11.538;2022-08-19T05:28:23;10.95;;;8.10;;
47519;SDS011;33252;48.122;11.538;2022-08-19T05:30:49;10.50;;;7.68;;
47519;SDS011;33252;48.122;11.538;2022-08-19T05:33:16;9.32;;;7.88;;
47519;SDS011;33252;48.122;11.538;2022-08-19T05:35:43;9.43;;;7.38;;
47519;SDS011;33252;48.122;11.538;2022-08-19T05:38:09;8.23;;;6.78;;
47519;SDS011;33252;48.122;11.538;2022-08-19T05:40:36;10.68;;;8.10;;
47519;SDS011;33252;48.122;11.538;2022-08-19T05:43:04;10.25;;;9.07;;
47519;SDS011;33252;48.122;11.538;2022-08-19T05:45:31;14.20;;;8.73;;
47519;SDS011;33252;48.122;11.538;2022-08-19T05:47:57;11.00;;;8.68;;
47519;SDS011;33252;48.122;11.538;2022-08-19T05:50:24;11.30;;;8.57;;
47519;SDS011;33252;48.122;11.538;2022-08-19T05:52:51;12.57;;;9.48;;
47519;SDS011;33252;48.122;11.538;2022-08-19T05:55:17;10.45;;;9.25;;
47519;SDS011;33252;48.122;11.538;2022-08-19T05:57:45;11.18;;;9.15;;
47519;SDS011;33252;48.122;11.538;2022-08-19T06:00:11;11.40;;;8.02;;
47519;SDS011;33252;48.122;11.538;2022-08-19T06:02:38;15.93;;;10.18;;
47519;SDS011;33252;48.122;11.538;2022-08-19T06:05:05;16.65;;;11.52;;
47519;SDS011;33252;48.122;11.538;2022-08-19T06:07:34;12.02;;;9.88;;
47519;SDS011;33252;48.122;11.538;2022-08-19T06:10:00;12.75;;;10.05;;
47519;SDS011;33252;48.122;11.538;2022-08-19T06:12:28;16.65;;;11.60;;
47519;SDS011;33252;48.122;11.538;2022-08-19T06:14:56;14.52;;;10.98;;
47519;SDS011;33252;48.122;11.538;2022-08-19T06:17:22;14.13;;;11.40;;
47519;SDS011;33252;48.122;11.538;2022-08-19T06:19:50;14.10;;;10.60;;
47519;SDS011;33252;48.122;11.538;2022-08-19T06:22:16;15.52;;;12.30;;
47519;SDS011;33252;48.122;11.538;2022-08-19T06:24:42;13.90;;;11.13;;
47519;SDS011;33252;48.122;11.538;2022-08-19T06:27:08;15.10;;;10.82;;
47519;SDS011;33252;48.122;11.538;2022-08-19T06:29:35;16.35;;;11.85;;
47519;SDS011;33252;48.122;11.538;2022-08-19T06:32:01;16.98;;;12.15;;
47519;SDS011;33252;48.122;11.538;2022-08-19T06:34:29;14.52;;;11.55;;
47519;SDS011;33252;48.122;11.538;2022-08-19T06:36:58;14.98;;;10.32;;
47519;SDS011;33252;48.122;11.538;2022-08-19T06:39:29;13.57;;;11.23;;
47519;SDS011;33252;48.122;11.538;2022-08-19T06:41:58;19.55;;;12.93;;
47519;SDS011;33252;48.122;11.538;2022-08-19T06:44:27;17.25;;;12.85;;
47519;SDS011;33252;48.122;11.538;2022-08-19T06:46:54;16.20;;;12.45;;
47519;SDS011;33252;48.122;11.538;2022-08-19T06:49:21;17.23;;;12.73;;
47519;SDS011;33252;48.122;11.538;2022-08-19T06:51:47;14.43;;;11.77;;
47519;SDS011;33252;48.122;11.538;2022-08-19T06:54:14;18.05;;;13.23;;
47519;SDS011;33252;48.122;11.538;2022-08-19T06:56:42;16.10;;;11.85;;
47519;SDS011;33252;48.122;11.538;2022-08-19T06:59:13;15.82;;;12.02;;
47519;SDS011;33252;48.122;11.538;2022-08-19T07:01:42;18.37;;;13.97;;
47519;SDS011;33252;48.122;11.538;2022-08-19T07:04:12;16.15;;;14.02;;
47519;SDS011;33252;48.122;11.538;2022-08-19T07:06:39;18.27;;;12.60;;
47519;SDS011;33252;48.122;11.538;2022-08-19T07:09:05;14.77;;;11.75;;
47519;SDS011;33252;48.122;11.538;2022-08-19T07:11:34;17.70;;;12.30;;
47519;SDS011;33252;48.122;11.538;2022-08-19T07:14:00;16.02;;;12.48;;
47519;SDS011;33252;48.122;11.538;2022-08-19T07:16:26;15.98;;;12.35;;
47519;SDS011;33252;48.122;11.538;2022-08-19T07:18:52;14.27;;;12.60;;
47519;SDS011;33252;48.122;11.538;2022-08-19T07:21:20;18.58;;;14.23;;
47519;SDS011;33252;48.122;11.538;2022-08-19T07:23:48;19.25;;;13.95;;
47519;SDS011;33252;48.122;11.538;2022-08-19T07:26:19;19.00;;;13.07;;
47519;SDS011;33252;48.122;11.538;2022-08-19T07:28:50;18.75;;;14.18;;
47519;SDS011;33252;48.122;11.538;2022-08-19T07:31:18;18.13;;;14.27;;
47519;SDS011;33252;48.122;11.538;2022-08-19T07:33:46;19.15;;;15.65;;
47519;SDS011;33252;48.122;11.538;2022-08-19T07:36:14;20.35;;;15.57;;
47519;SDS011;33252;48.122;11.538;2022-08-19T07:38:43;21.20;;;16.83;;
47519;SDS011;33252;48.122;11.538;2022-08-19T07:41:14;21.70;;;15.73;;
47519;SDS011;33252;48.122;11.538;2022-08-19T07:43:43;23.42;;;16.00;;
47519;SDS011;33252;48.122;11.538;2022-08-19T07:46:09;23.27;;;16.42;;
47519;SDS011;33252;48.122;11.538;2022-08-19T07:48:36;22.75;;;17.85;;
47519;SDS011;33252;48.122;11.538;2022-08-19T07:51:03;23.70;;;18.90;;
47519;SDS011;33252;48.122;11.538;2022-08-19T07:53:30;20.13;;;16.83;;
47519;SDS011;33252;48.122;11.538;2022-08-19T07:55:57;26.08;;;18.52;;
47519;SDS011;33252;48.122;11.538;2022-08-19T07:58:30;23.40;;;17.15;;
47519;SDS011;33252;48.122;11.538;2022-08-19T08:00:58;27.15;;;18.95;;
47519;SDS011;33252;48.122;11.538;2022-08-19T08:03:24;25.38;;;19.10;;
47519;SDS011;33252;48.122;11.538;2022-08-19T08:06:10;25.30;;;18.92;;
47519;SDS011;33252;48.122;11.538;2022-08-19T08:08:58;28.33;;;21.85;;
47519;SDS011;33252;48.122;11.538;2022-08-19T08:11:38;29.30;;;21.75;;
47519;SDS011;33252;48.122;11.538;2022-08-19T08:14:04;31.67;;;21.67;;
47519;SDS011;33252;48.122;11.538;2022-08-19T08:16:35;32.22;;;22.45;;
47519;SDS011;33252;48.122;11.538;2022-08-19T08:19:03;31.35;;;22.80;;
47519;SDS011;33252;48.122;11.538;2022-08-19T08:21:31;35.95;;;24.48;;
47519;SDS011;33252;48.122;11.538;2022-08-19T08:23:58;29.38;;;22.33;;
47519;SDS011;33252;48.122;11.538;2022-08-19T08:26:24;27.80;;;21.30;;
47519;SDS011;33252;48.122;11.538;2022-08-19T08:28:50;29.50;;;22.10;;
47519;SDS011;33252;48.122;11.538;2022-08-19T08:31:17;27.25;;;21.55;;
47519;SDS011;33252;48.122;11.538;2022-08-19T08:33:44;31.25;;;23.75;;
47519;SDS011;33252;48.122;11.538;2022-08-19T08:36:11;30.52;;;21.42;;
47519;SDS011;33252;48.122;11.538;2022-08-19T08:38:41;31.52;;;22.30;;
47519;SDS011;33252;48.122;11.538;2022-08-19T08:41:26;32.72;;;25.73;;
47519;SDS011;33252;48.122;11.538;2022-08-19T08:43:59;33.40;;;23.73;;
47519;SDS011;33252;48.122;11.538;2022-08-19T08:46:48;34.17;;;23.95;;
47519;SDS011;33252;48.122;11.538;2022-08-19T08:52:15;35.75;;;23.35;;
47519;SDS011;33252;48.122;11.538;2022-08-19T08:55:19;34.15;;;23.15;;
47519;SDS011;33252;48.122;11.538;2022-08-19T09:00:38;31.33;;;21.67;;
47519;SDS011;33252;48.122;11.538;2022-08-19T09:03:18;33.85;;;22.27;;
47519;SDS011;33252;48.122;11.538;2022-08-19T09:08:40;28.40;;;20.55;;
47519;SDS011;33252;48.122;11.538;2022-08-19T09:11:25;29.35;;;21.75;;
47519;SDS011;33252;48.122;11.538;2022-08-19T09:16:59;26.50;;;20.48;;
47519;SDS011;33252;48.122;11.538;2022-08-19T09:19:28;27.73;;;21.23;;
47519;SDS011;33252;48.122;11.538;2022-08-19T09:21:55;27.58;;;19.83;;
47519;SDS011;33252;48.122;11.538;2022-08-19T09:24:21;29.98;;;21.10;;
47519;SDS011;33252;48.122;11.538;2022-08-19T09:26:46;27.98;;;20.50;;
47519;SDS011;33252;48.122;11.538;2022-08-19T09:29:12;27.65;;;20.50;;
47519;SDS011;33252;48.122;11.538;2022-08-19T09:31:38;28.50;;;21.30;;
47519;SDS011;33252;48.122;11.538;2022-08-19T09:34:04;30.25;;;21.27;;
47519;SDS011;33252;48.122;11.538;2022-08-19T09:36:31;25.10;;;19.48;;
47519;SDS011;33252;48.122;11.538;2022-08-19T09:39:03;26.73;;;20.85;;
47519;SDS011;33252;48.122;11.538;2022-08-19T09:41:30;25.40;;;18.13;;
47519;SDS011;33252;48.122;11.538;2022-08-19T09:43:57;26.33;;;20.02;;
47519;SDS011;33252;48.122;11.538;2022-08-19T09:46:24;24.88;;;19.10;;
47519;SDS011;33252;48.122;11.538;2022-08-19T09:48:52;26.40;;;20.10;;
47519;SDS011;33252;48.122;11.538;2022-08-19T09:51:23;28.10;;;19.77;;
47519;SDS011;33252;48.122;11.538;2022-08-19T09:53:50;24.38;;;19.23;;
47519;SDS011;33252;48.122;11.538;2022-08-19T09:56:18;26.98;;;19.30;;
47519;SDS011;33252;48.122;11.538;2022-08-19T09:58:45;30.02;;;20.17;;
47519;SDS011;33252;48.122;11.538;2022-08-19T10:01:18;25.98;;;19.67;;
47519;SDS011;33252;48.122;11.538;2022-08-19T10:03:49;28.67;;;20.42;;
47519;SDS011;33252;48.122;11.538;2022-08-19T10:06:18;24.30;;;19.05;;
47519;SDS011;33252;48.122;11.538;2022-08-19T10:08:45;25.52;;;19.38;;
47519;SDS011;33252;48.122;11.538;2022-08-19T10:11:12;21.67;;;17.23;;
47519;SDS011;33252;48.122;11.538;2022-08-19T10:13:40;27.42;;;19.15;;
47519;SDS011;33252;48.122;11.538;2022-08-19T10:16:08;23.88;;;17.63;;
47519;SDS011;33252;48.122;11.538;2022-08-19T10:18:36;24.67;;;17.92;;
47519;SDS011;33252;48.122;11.538;2022-08-19T10:21:04;25.35;;;18.60;;
47519;SDS011;33252;48.122;11.538;2022-08-19T10:23:35;27.90;;;19.38;;
47519;SDS011;33252;48.122;11.538;2022-08-19T10:26:03;22.73;;;17.40;;
47519;SDS011;33252;48.122;11.538;2022-08-19T10:28:31;26.25;;;18.05;;
47519;SDS011;33252;48.122;11.538;2022-08-19T10:31:05;25.48;;;19.02;;
47519;SDS011;33252;48.122;11.538;2022-08-19T10:33:42;22.17;;;17.15;;
47519;SDS011;33252;48.122;11.538;2022-08-19T10:36:18;24.92;;;18.08;;
47519;SDS011;33252;48.122;11.538;2022-08-19T10:38:48;21.60;;;17.48;;
47519;SDS011;33252;48.122;11.538;2022-08-19T10:41:19;20.50;;;15.73;;
47519;SDS011;33252;48.122;11.538;2022-08-19T10:43:51;22.83;;;17.00;;
47519;SDS011;33252;48.122;11.538;2022-08-19T10:46:22;23.50;;;16.35;;
47519;SDS011;33252;48.122;11.538;2022-08-19T10:48:49;20.13;;;15.15;;
47519;SDS011;33252;48.122;11.538;2022-08-19T10:51:15;17.75;;;13.48;;
47519;SDS011;33252;48.122;11.538;2022-08-19T10:54:00;16.25;;;13.32;;
47519;SDS011;33252;48.122;11.538;2022-08-19T10:56:27;16.58;;;14.13;;
47519;SDS011;33252;48.122;11.538;2022-08-19T10:59:13;18.45;;;13.82;;
47519;SDS011;33252;48.122;11.538;2022-08-19T11:01:40;15.68;;;11.60;;
47519;SDS011;33252;48.122;11.538;2022-08-19T11:04:07;13.90;;;11.68;;
47519;SDS011;33252;48.122;11.538;2022-08-19T11:06:36;18.98;;;13.77;;
47519;SDS011;33252;48.122;11.538;2022-08-19T11:09:04;15.80;;;13.25;;
47519;SDS011;33252;48.122;11.538;2022-08-19T11:11:30;15.65;;;11.75;;
47519;SDS011;33252;48.122;11.538;2022-08-19T11:13:57;18.05;;;13.00;;
47519;SDS011;33252;48.122;11.538;2022-08-19T11:16:23;16.75;;;13.02;;
47519;SDS011;33252;48.122;11.538;2022-08-19T11:18:53;13.73;;;11.30;;
47519;SDS011;33252;48.122;11.538;2022-08-19T11:21:31;21.60;;;14.38;;
47519;SDS011;33252;48.122;11.538;2022-08-19T11:24:03;15.07;;;12.68;;
47519;SDS011;33252;48.122;11.538;2022-08-19T11:26:31;13.85;;;12.07;;
47519;SDS011;33252;48.122;11.538;2022-08-19T11:28:57;16.33;;;12.88;;
47519;SDS011;33252;48.122;11.538;2022-08-19T11:31:29;15.45;;;12.40;;
47519;SDS011;33252;48.122;11.538;2022-08-19T11:33:57;16.60;;;13.50;;
47519;SDS011;33252;48.122;11.538;2022-08-19T11:36:25;15.57;;;11.27;;
47519;SDS011;33252;48.122;11.538;2022-08-19T11:38:51;10.68;;;8.35;;
47519;SDS011;33252;48.122;11.538;2022-08-19T11:41:18;9.07;;;6.55;;
47519;SDS011;33252;48.122;11.538;2022-08-19T11:43:45;6.70;;;5.80;;
47519;SDS011;33252;48.122;11.538;2022-08-19T11:46:12;9.00;;;6.03;;
47519;SDS011;33252;48.122;11.538;2022-08-19T11:48:40;6.80;;;5.22;;
47519;SDS011;33252;48.122;11.538;2022-08-19T11:51:09;6.05;;;5.20;;
47519;SDS011;33252;48.122;11.538;2022-08-19T11:53:40;5.20;;;4.70;;
47519;SDS011;33252;48.122;11.538;2022-08-19T11:56:07;4.90;;;4.43;;
47519;SDS011;33252;48.122;11.538;2022-08-19T11:58:33;5.13;;;4.57;;
47519;SDS011;33252;48.122;11.538;2022-08-19T12:01:00;5.32;;;4.22;;
47519;SDS011;33252;48.122;11.538;2022-08-19T12:03:26;3.95;;;3.13;;
47519;SDS011;33252;48.122;11.538;2022-08-19T12:05:53;4.05;;;3.47;;
47519;SDS011;33252;48.122;11.538;2022-08-19T12:08:18;3.38;;;2.47;;
47519;SDS011;33252;48.122;11.538;2022-08-19T12:10:44;3.17;;;2.10;;
47519;SDS011;33252;48.122;11.538;2022-08-19T12:13:11;2.83;;;2.03;;
47519;SDS011;33252;48.122;11.538;2022-08-19T12:15:44;1.60;;;1.23;;
47519;SDS011;33252;48.122;11.538;2022-08-19T12:18:11;1.50;;;1.20;;
47519;SDS011;33252;48.122;11.538;2022-08-19T12:20:39;2.75;;;1.20;;
47519;SDS011;33252;48.122;11.538;2022-08-19T12:23:08;1.58;;;1.15;;
47519;SDS011;33252;48.122;11.538;2022-08-19T12:25:35;1.58;;;1.10;;
47519;SDS011;33252;48.122;11.538;2022-08-19T12:28:02;1.25;;;1.10;;
47519;SDS011;33252;48.122;11.538;2022-08-19T12:30:28;1.45;;;1.00;;
47519;SDS011;33252;48.122;11.538;2022-08-19T12:32:54;1.35;;;1.02;;
47519;SDS011;33252;48.122;11.538;2022-08-19T12:35:20;2.13;;;1.08;;
47519;SDS011;33252;48.122;11.538;2022-08-19T12:37:47;1.48;;;1.08;;
47519;SDS011;33252;48.122;11.538;2022-08-19T12:40:13;3.83;;;1.27;;
47519;SDS011;33252;48.122;11.538;2022-08-19T12:42:40;1.27;;;1.00;;
47519;SDS011;33252;48.122;11.538;2022-08-19T12:45:10;1.88;;;1.20;;
47519;SDS011;33252;48.122;11.538;2022-08-19T12:47:37;1.25;;;0.90;;
47519;SDS011;33252;48.122;11.538;2022-08-19T12:50:04;1.27;;;1.00;;
47519;SDS011;33252;48.122;11.538;2022-08-19T12:52:33;1.50;;;1.10;;
47519;SDS011;33252;48.122;11.538;2022-08-19T12:55:03;1.48;;;0.85;;
47519;SDS011;33252;48.122;11.538;2022-08-19T12:57:30;1.17;;;0.93;;
47519;SDS011;33252;48.122;11.538;2022-08-19T13:00:10;2.30;;;1.02;;
47519;SDS011;33252;48.122;11.538;2022-08-19T13:02:39;1.35;;;0.70;;
47519;SDS011;33252;48.122;11.538;2022-08-19T13:05:09;1.80;;;1.15;;
47519;SDS011;33252;48.122;11.538;2022-08-19T13:07:37;1.80;;;1.20;;
47519;SDS011;33252;48.122;11.538;2022-08-19T13:10:08;2.00;;;1.35;;
47519;SDS011;33252;48.122;11.538;2022-08-19T13:12:35;1.90;;;1.15;;
47519;SDS011;33252;48.122;11.538;2022-08-19T13:15:01;1.98;;;1.45;;
47519;SDS011;33252;48.122;11.538;2022-08-19T13:17:27;1.17;;;1.08;;
47519;SDS011;33252;48.122;11.538;2022-08-19T13:19:53;2.13;;;1.45;;
47519;SDS011;33252;48.122;11.538;2022-08-19T13:22:18;1.45;;;1.05;;
47519;SDS011;33252;48.122;11.538;2022-08-19T13:24:44;1.90;;;1.25;;
47519;SDS011;33252;48.122;11.538;2022-08-19T13:27:10;1.20;;;1.00;;
47519;SDS011;33252;48.122;11.538;2022-08-19T13:29:36;2.70;;;1.30;;
47519;SDS011;33252;48.122;11.538;2022-08-19T13:32:20;1.25;;;1.10;;
47519;SDS011;33252;48.122;11.538;2022-08-19T13:35:04;1.33;;;0.90;;
47519;SDS011;33252;48.122;11.538;2022-08-19T13:37:30;1.70;;;1.40;;
47519;SDS011;33252;48.122;11.538;2022-08-19T13:40:09;1.80;;;0.90;;
47519;SDS011;33252;48.122;11.538;2022-08-19T13:42:42;2.00;;;0.90;;
47519;SDS011;33252;48.122;11.538;2022-08-19T13:45:11;1.35;;;1.13;;
47519;SDS011;33252;48.122;11.538;2022-08-19T13:47:37;1.90;;;1.70;;
47519;SDS011;33252;48.122;11.538;2022-08-19T13:50:07;2.65;;;2.13;;
47519;SDS011;33252;48.122;11.538;2022-08-19T13:52:35;4.20;;;2.97;;
47519;SDS011;33252;48.122;11.538;2022-08-19T13:55:01;2.42;;;2.10;;
47519;SDS011;33252;48.122;11.538;2022-08-19T13:57:28;2.80;;;2.10;;
47519;SDS011;33252;48.122;11.538;2022-08-19T13:59:53;2.88;;;1.90;;
47519;SDS011;33252;48.122;11.538;2022-08-19T14:02:20;2.80;;;2.00;;
47519;SDS011;33252;48.122;11.538;2022-08-19T14:04:45;2.90;;;2.53;;
47519;SDS011;33252;48.122;11.538;2022-08-19T14:07:11;2.88;;;2.42;;
47519;SDS011;33252;48.122;11.538;2022-08-19T14:09:36;3.92;;;3.30;;
47519;SDS011;33252;48.122;11.538;2022-08-19T14:12:02;3.35;;;3.03;;
47519;SDS011;33252;48.122;11.538;2022-08-19T14:14:29;2.83;;;2.30;;
47519;SDS011;33252;48.122;11.538;2022-08-19T14:16:55;2.42;;;2.13;;
47519;SDS011;33252;48.122;11.538;2022-08-19T14:19:20;4.55;;;3.35;;
47519;SDS011;33252;48.122;11.538;2022-08-19T14:21:46;2.45;;;2.25;;
47519;SDS011;33252;48.122;11.538;2022-08-19T14:24:12;3.20;;;2.90;;
47519;SDS011;33252;48.122;11.538;2022-08-19T14:26:38;2.88;;;2.28;;
47519;SDS011;33252;48.122;11.538;2022-08-19T14:29:04;2.78;;;2.17;;
47519;SDS011;33252;48.122;11.538;2022-08-19T14:31:29;5.68;;;2.88;;
47519;SDS011;33252;48.122;11.538;2022-08-19T14:33:55;2.55;;;2.35;;
47519;SDS011;33252;48.122;11.538;2022-08-19T14:36:21;4.28;;;2.28;;
47519;SDS011;33252;48.122;11.538;2022-08-19T14:38:47;3.28;;;2.67;;
47519;SDS011;33252;48.122;11.538;2022-08-19T14:41:17;3.05;;;2.30;;
47519;SDS011;33252;48.122;11.538;2022-08-19T14:43:47;4.75;;;2.45;;
47519;SDS011;33252;48.122;11.538;2022-08-19T14:46:15;1.75;;;1.42;;